sensor_id;sensor_type;location;lat;lon;timestamp;temperature;humidity
57753;DHT22;43583;53.132;6.574;2023-11-18T00:00:09;1.30;99.90
57753;DHT22;43583;53.132;6.574;2023-11-18T00:02:38;1.30;99.90
57753;DHT22;43583;53.132;6.574;2023-11-18T00:05:04;1.30;99.90
57753;DHT22;43583;53.132;6.574;2023-11-18T00:07:30;1.30;99.90
57753;DHT22;43583;53.132;6.574;2023-11-18T00:09:57;1.40;99.90
57753;DHT22;43583;53.132;6.574;2023-11-18T00:12:23;1.40;99.90
57753;DHT22;43583;53.132;6.574;2023-11-18T00:14:50;1.40;99.90
57753;DHT22;43583;53.132;6.574;2023-11-18T00:17:15;1.50;99.90
57753;DHT22;43583;53.132;6.574;2023-11-18T00:19:41;1.50;99.90
57753;DHT22;43583;53.132;6.574;2023-11-18T00:22:08;1.40;99.90
57753;DHT22;43583;53.132;6.574;2023-11-18T00:24:33;1.40;99.90
57753;DHT22;43583;53.132;6.574;2023-11-18T00:27:02;1.40;99.90
57753;DHT22;43583;53.132;6.574;2023-11-18T00:29:34;1.40;99.90
57753;DHT22;43583;53.132;6.574;2023-11-18T00:32:00;1.40;99.90
57753;DHT22;43583;53.132;6.574;2023-11-18T00:34:26;1.40;99.90
57753;DHT22;43583;53.132;6.574;2023-11-18T00:36:53;1.40;99.90
57753;DHT22;43583;53.132;6.574;2023-11-18T00:39:19;1.40;99.90
57753;DHT22;43583;53.132;6.574;2023-11-18T00:41:45;1.40;99.90
57753;DHT22;43583;53.132;6.574;2023-11-18T00:44:11;1.40;99.90
57753;DHT22;43583;53.132;6.574;2023-11-18T00:46:38;1.40;99.90
57753;DHT22;43583;53.132;6.574;2023-11-18T00:49:04;1.50;99.90
57753;DHT22;43583;53.132;6.574;2023-11-18T00:51:30;1.50;99.90
57753;DHT22;43583;53.132;6.574;2023-11-18T00:53:56;1.60;99.90
57753;DHT22;43583;53.132;6.574;2023-11-18T00:56:22;1.60;99.90
57753;DHT22;43583;53.132;6.574;2023-11-18T00:58:48;1.60;99.90
57753;DHT22;43583;53.132;6.574;2023-11-18T01:01:14;1.60;99.90
57753;DHT22;43583;53.132;6.574;2023-11-18T01:03:44;1.60;99.90
57753;DHT22;43583;53.132;6.574;2023-11-18T01:06:10;1.60;99.90
57753;DHT22;43583;53.132;6.574;2023-11-18T01:08:35;1.70;99.90
57753;DHT22;43583;53.132;6.574;2023-11-18T01:11:01;1.70;99.90
57753;DHT22;43583;53.132;6.574;2023-11-18T01:13:26;1.70;99.90
57753;DHT22;43583;53.132;6.574;2023-11-18T01:15:53;1.70;99.90
57753;DHT22;43583;53.132;6.574;2023-11-18T01:18:19;1.70;99.90
57753;DHT22;43583;53.132;6.574;2023-11-18T01:20:45;1.80;99.90
57753;DHT22;43583;53.132;6.574;2023-11-18T01:23:12;1.70;99.90
57753;DHT22;43583;53.132;6.574;2023-11-18T01:25:38;1.70;99.90
57753;DHT22;43583;53.132;6.574;2023-11-18T01:28:05;1.70;99.90
57753;DHT22;43583;53.132;6.574;2023-11-18T01:30:31;1.70;99.90
57753;DHT22;43583;53.132;6.574;2023-11-18T01:32:58;1.70;99.90
57753;DHT22;43583;53.132;6.574;2023-11-18T01:35:26;1.70;99.90
57753;DHT22;43583;53.132;6.574;2023-11-18T01:37:52;1.70;99.90
57753;DHT22;43583;53.132;6.574;2023-11-18T01:40:18;1.70;99.90
57753;DHT22;43583;53.132;6.574;2023-11-18T01:42:45;1.70;99.90
57753;DHT22;43583;53.132;6.574;2023-11-18T01:45:12;1.80;99.90
57753;DHT22;43583;53.132;6.574;2023-11-18T01:47:39;1.80;99.90
57753;DHT22;43583;53.132;6.574;2023-11-18T01:50:07;1.80;99.90
57753;DHT22;43583;53.132;6.574;2023-11-18T01:52:34;1.80;99.90
57753;DHT22;43583;53.132;6.574;2023-11-18T01:55:01;1.90;99.90
57753;DHT22;43583;53.132;6.574;2023-11-18T01:57:32;1.90;99.90
57753;DHT22;43583;53.132;6.574;2023-11-18T01:59:59;1.90;99.90
57753;DHT22;43583;53.132;6.574;2023-11-18T02:02:26;1.90;99.90
57753;DHT22;43583;53.132;6.574;2023-11-18T02:04:51;2.00;99.90
57753;DHT22;43583;53.132;6.574;2023-11-18T02:07:18;2.00;99.90
57753;DHT22;43583;53.132;6.574;2023-11-18T02:09:44;2.10;99.90
57753;DHT22;43583;53.132;6.574;2023-11-18T02:15:00;2.20;99.90
57753;DHT22;43583;53.132;6.574;2023-11-18T02:17:27;2.30;99.90
57753;DHT22;43583;53.132;6.574;2023-11-18T02:19:56;2.40;99.90
57753;DHT22;43583;53.132;6.574;2023-11-18T02:22:23;2.40;99.90
57753;DHT22;43583;53.132;6.574;2023-11-18T02:24:49;2.50;99.90
57753;DHT22;43583;53.132;6.574;2023-11-18T02:27:15;2.50;99.90
57753;DHT22;43583;53.132;6.574;2023-11-18T02:29:44;2.50;99.90
57753;DHT22;43583;53.132;6.574;2023-11-18T02:32:19;2.60;99.90
57753;DHT22;43583;53.132;6.574;2023-11-18T02:35:12;2.60;99.90
57753;DHT22;43583;53.132;6.574;2023-11-18T02:37:43;2.70;99.90
57753;DHT22;43583;53.132;6.574;2023-11-18T02:40:12;2.70;99.90
57753;DHT22;43583;53.132;6.574;2023-11-18T02:42:43;2.80;99.90
57753;DHT22;43583;53.132;6.574;2023-11-18T02:45:12;2.80;99.90
57753;DHT22;43583;53.132;6.574;2023-11-18T02:47:43;2.90;99.90
57753;DHT22;43583;53.132;6.574;2023-11-18T02:50:09;2.90;99.90
57753;DHT22;43583;53.132;6.574;2023-11-18T02:52:40;2.90;99.90
57753;DHT22;43583;53.132;6.574;2023-11-18T02:55:06;2.90;99.90
57753;DHT22;43583;53.132;6.574;2023-11-18T02:57:33;3.00;99.90
57753;DHT22;43583;53.132;6.574;2023-11-18T02:59:59;3.00;99.90
57753;DHT22;43583;53.132;6.574;2023-11-18T03:02:26;3.00;99.90
57753;DHT22;43583;53.132;6.574;2023-11-18T03:04:56;3.10;99.90
57753;DHT22;43583;53.132;6.574;2023-11-18T03:07:22;3.10;99.90
57753;DHT22;43583;53.132;6.574;2023-11-18T03:09:48;3.10;99.90
57753;DHT22;43583;53.132;6.574;2023-11-18T03:12:13;3.20;99.90
57753;DHT22;43583;53.132;6.574;2023-11-18T03:14:39;3.30;99.90
57753;DHT22;43583;53.132;6.574;2023-11-18T03:17:05;3.20;99.90
57753;DHT22;43583;53.132;6.574;2023-11-18T03:19:35;3.20;99.90
57753;DHT22;43583;53.132;6.574;2023-11-18T03:22:01;3.20;99.90
57753;DHT22;43583;53.132;6.574;2023-11-18T03:24:27;3.20;99.90
57753;DHT22;43583;53.132;6.574;2023-11-18T03:26:54;3.30;99.90
57753;DHT22;43583;53.132;6.574;2023-11-18T03:29:20;3.30;99.90
57753;DHT22;43583;53.132;6.574;2023-11-18T03:31:46;3.30;99.90
57753;DHT22;43583;53.132;6.574;2023-11-18T03:34:16;3.30;99.90
57753;DHT22;43583;53.132;6.574;2023-11-18T03:36:45;3.30;99.90
57753;DHT22;43583;53.132;6.574;2023-11-18T03:39:12;3.30;99.90
57753;DHT22;43583;53.132;6.574;2023-11-18T03:41:38;3.40;99.90
57753;DHT22;43583;53.132;6.574;2023-11-18T03:44:04;3.40;99.90
57753;DHT22;43583;53.132;6.574;2023-11-18T03:46:30;3.40;99.90
57753;DHT22;43583;53.132;6.574;2023-11-18T03:49:00;3.40;99.90
57753;DHT22;43583;53.132;6.574;2023-11-18T03:51:26;3.50;99.90
57753;DHT22;43583;53.132;6.574;2023-11-18T03:53:51;3.50;99.90
57753;DHT22;43583;53.132;6.574;2023-11-18T03:56:17;3.50;99.90
57753;DHT22;43583;53.132;6.574;2023-11-18T03:58:46;3.50;99.90
57753;DHT22;43583;53.132;6.574;2023-11-18T04:01:24;3.50;99.90
57753;DHT22;43583;53.132;6.574;2023-11-18T04:03:53;3.60;99.90
57753;DHT22;43583;53.132;6.574;2023-11-18T04:06:20;3.60;99.90
57753;DHT22;43583;53.132;6.574;2023-11-18T04:08:47;3.60;99.90
57753;DHT22;43583;53.132;6.574;2023-11-18T04:11:14;3.60;99.90
57753;DHT22;43583;53.132;6.574;2023-11-18T04:13:40;3.60;99.90
57753;DHT22;43583;53.132;6.574;2023-11-18T04:16:10;3.60;99.90
57753;DHT22;43583;53.132;6.574;2023-11-18T04:18:39;3.60;99.90
57753;DHT22;43583;53.132;6.574;2023-11-18T04:21:06;3.70;99.90
57753;DHT22;43583;53.132;6.574;2023-11-18T04:23:37;3.70;99.90
57753;DHT22;43583;53.132;6.574;2023-11-18T04:26:04;3.70;99.90
57753;DHT22;43583;53.132;6.574;2023-11-18T04:28:30;3.70;99.90
57753;DHT22;43583;53.132;6.574;2023-11-18T04:30:56;3.80;99.90
57753;DHT22;43583;53.132;6.574;2023-11-18T04:33:21;3.80;99.90
57753;DHT22;43583;53.132;6.574;2023-11-18T04:35:47;3.80;99.90
57753;DHT22;43583;53.132;6.574;2023-11-18T04:38:13;3.80;99.90
57753;DHT22;43583;53.132;6.574;2023-11-18T04:40:38;3.80;99.90
57753;DHT22;43583;53.132;6.574;2023-11-18T04:43:06;3.90;99.90
57753;DHT22;43583;53.132;6.574;2023-11-18T04:45:32;3.90;99.90
57753;DHT22;43583;53.132;6.574;2023-11-18T04:47:57;4.00;99.90
57753;DHT22;43583;53.132;6.574;2023-11-18T04:50:25;4.00;99.90
57753;DHT22;43583;53.132;6.574;2023-11-18T04:52:50;4.00;99.90
57753;DHT22;43583;53.132;6.574;2023-11-18T04:55:16;4.00;99.90
57753;DHT22;43583;53.132;6.574;2023-11-18T04:57:41;4.00;99.90
57753;DHT22;43583;53.132;6.574;2023-11-18T05:00:07;4.00;99.90
57753;DHT22;43583;53.132;6.574;2023-11-18T05:02:39;4.00;99.90
57753;DHT22;43583;53.132;6.574;2023-11-18T05:05:05;4.00;99.90
57753;DHT22;43583;53.132;6.574;2023-11-18T05:07:33;4.00;99.90
57753;DHT22;43583;53.132;6.574;2023-11-18T05:10:00;4.10;99.90
57753;DHT22;43583;53.132;6.574;2023-11-18T05:12:26;4.10;99.90
57753;DHT22;43583;53.132;6.574;2023-11-18T05:14:57;4.10;99.90
57753;DHT22;43583;53.132;6.574;2023-11-18T05:17:23;4.10;99.90
57753;DHT22;43583;53.132;6.574;2023-11-18T05:19:49;4.10;99.90
57753;DHT22;43583;53.132;6.574;2023-11-18T05:22:14;4.20;99.90
57753;DHT22;43583;53.132;6.574;2023-11-18T05:24:41;4.20;99.90
57753;DHT22;43583;53.132;6.574;2023-11-18T05:27:06;4.20;99.90
57753;DHT22;43583;53.132;6.574;2023-11-18T05:29:32;4.20;99.90
57753;DHT22;43583;53.132;6.574;2023-11-18T05:31:59;4.30;99.90
57753;DHT22;43583;53.132;6.574;2023-11-18T05:34:24;4.30;99.90
57753;DHT22;43583;53.132;6.574;2023-11-18T05:36:50;4.20;99.90
57753;DHT22;43583;53.132;6.574;2023-11-18T05:39:20;4.20;99.90
57753;DHT22;43583;53.132;6.574;2023-11-18T05:41:46;4.30;99.90
57753;DHT22;43583;53.132;6.574;2023-11-18T05:44:15;4.30;99.90
57753;DHT22;43583;53.132;6.574;2023-11-18T05:46:48;4.30;99.90
57753;DHT22;43583;53.132;6.574;2023-11-18T05:49:17;4.30;99.90
57753;DHT22;43583;53.132;6.574;2023-11-18T05:51:43;4.30;99.90
57753;DHT22;43583;53.132;6.574;2023-11-18T05:54:09;4.30;99.90
57753;DHT22;43583;53.132;6.574;2023-11-18T05:56:36;4.40;99.90
57753;DHT22;43583;53.132;6.574;2023-11-18T05:59:02;4.40;99.90
57753;DHT22;43583;53.132;6.574;2023-11-18T06:01:30;4.40;99.90
57753;DHT22;43583;53.132;6.574;2023-11-18T06:03:57;4.40;99.90
57753;DHT22;43583;53.132;6.574;2023-11-18T06:06:23;4.40;99.90
57753;DHT22;43583;53.132;6.574;2023-11-18T06:08:48;4.40;99.90
57753;DHT22;43583;53.132;6.574;2023-11-18T06:11:15;4.40;99.90
57753;DHT22;43583;53.132;6.574;2023-11-18T06:13:49;4.50;99.90
57753;DHT22;43583;53.132;6.574;2023-11-18T06:16:24;4.40;99.90
57753;DHT22;43583;53.132;6.574;2023-11-18T06:18:52;4.50;99.90
57753;DHT22;43583;53.132;6.574;2023-11-18T06:21:26;4.50;99.90
57753;DHT22;43583;53.132;6.574;2023-11-18T06:23:58;4.60;99.90
57753;DHT22;43583;53.132;6.574;2023-11-18T06:26:24;4.60;99.90
57753;DHT22;43583;53.132;6.574;2023-11-18T06:28:56;4.60;99.90
57753;DHT22;43583;53.132;6.574;2023-11-18T06:31:22;4.60;99.90
57753;DHT22;43583;53.132;6.574;2023-11-18T06:33:50;4.60;99.90
57753;DHT22;43583;53.132;6.574;2023-11-18T06:38:45;4.70;99.90
57753;DHT22;43583;53.132;6.574;2023-11-18T06:41:11;4.70;99.90
57753;DHT22;43583;53.132;6.574;2023-11-18T06:43:42;4.70;99.90
57753;DHT22;43583;53.132;6.574;2023-11-18T06:46:25;4.70;99.90
57753;DHT22;43583;53.132;6.574;2023-11-18T06:48:52;4.70;99.90
57753;DHT22;43583;53.132;6.574;2023-11-18T06:51:23;4.80;99.90
57753;DHT22;43583;53.132;6.574;2023-11-18T06:53:50;4.80;99.90
57753;DHT22;43583;53.132;6.574;2023-11-18T06:56:16;4.90;99.90
57753;DHT22;43583;53.132;6.574;2023-11-18T06:58:41;4.90;99.90
57753;DHT22;43583;53.132;6.574;2023-11-18T07:01:08;4.90;99.90
57753;DHT22;43583;53.132;6.574;2023-11-18T07:03:35;4.90;99.90
57753;DHT22;43583;53.132;6.574;2023-11-18T07:06:02;4.90;99.90
57753;DHT22;43583;53.132;6.574;2023-11-18T07:08:31;5.00;99.90
57753;DHT22;43583;53.132;6.574;2023-11-18T07:10:57;5.00;99.90
57753;DHT22;43583;53.132;6.574;2023-11-18T07:13:22;5.00;99.90
57753;DHT22;43583;53.132;6.574;2023-11-18T07:15:49;5.00;99.90
57753;DHT22;43583;53.132;6.574;2023-11-18T07:18:15;5.00;99.90
57753;DHT22;43583;53.132;6.574;2023-11-18T07:20:41;5.00;99.90
57753;DHT22;43583;53.132;6.574;2023-11-18T07:23:07;5.10;99.90
57753;DHT22;43583;53.132;6.574;2023-11-18T07:25:34;5.10;99.90
57753;DHT22;43583;53.132;6.574;2023-11-18T07:28:00;5.10;99.90
57753;DHT22;43583;53.132;6.574;2023-11-18T07:30:26;5.10;99.90
57753;DHT22;43583;53.132;6.574;2023-11-18T07:32:51;5.10;99.90
57753;DHT22;43583;53.132;6.574;2023-11-18T07:35:17;5.10;99.90
57753;DHT22;43583;53.132;6.574;2023-11-18T07:37:43;5.20;99.90
57753;DHT22;43583;53.132;6.574;2023-11-18T07:40:09;5.20;99.90
57753;DHT22;43583;53.132;6.574;2023-11-18T07:42:37;5.20;99.90
57753;DHT22;43583;53.132;6.574;2023-11-18T07:45:04;5.20;99.90
57753;DHT22;43583;53.132;6.574;2023-11-18T07:47:32;5.20;99.90
57753;DHT22;43583;53.132;6.574;2023-11-18T07:49:59;5.30;99.90
57753;DHT22;43583;53.132;6.574;2023-11-18T07:52:29;5.20;99.90
57753;DHT22;43583;53.132;6.574;2023-11-18T07:54:55;5.20;99.90
57753;DHT22;43583;53.132;6.574;2023-11-18T07:57:20;5.30;99.90
57753;DHT22;43583;53.132;6.574;2023-11-18T07:59:46;5.30;99.90
57753;DHT22;43583;53.132;6.574;2023-11-18T08:02:11;5.40;99.90
57753;DHT22;43583;53.132;6.574;2023-11-18T08:04:40;5.40;99.90
57753;DHT22;43583;53.132;6.574;2023-11-18T08:07:07;5.40;99.90
57753;DHT22;43583;53.132;6.574;2023-11-18T08:09:33;5.40;99.90
57753;DHT22;43583;53.132;6.574;2023-11-18T08:11:58;5.40;99.90
57753;DHT22;43583;53.132;6.574;2023-11-18T08:14:24;5.40;99.90
57753;DHT22;43583;53.132;6.574;2023-11-18T08:16:50;5.40;99.90
57753;DHT22;43583;53.132;6.574;2023-11-18T08:19:16;5.40;99.90
57753;DHT22;43583;53.132;6.574;2023-11-18T08:21:43;5.50;99.90
57753;DHT22;43583;53.132;6.574;2023-11-18T08:24:08;5.40;99.90
57753;DHT22;43583;53.132;6.574;2023-11-18T08:26:37;5.40;99.90
57753;DHT22;43583;53.132;6.574;2023-11-18T08:29:03;5.50;99.90
57753;DHT22;43583;53.132;6.574;2023-11-18T08:31:28;5.50;99.90
57753;DHT22;43583;53.132;6.574;2023-11-18T08:33:54;5.50;99.90
57753;DHT22;43583;53.132;6.574;2023-11-18T08:36:20;5.50;99.90
57753;DHT22;43583;53.132;6.574;2023-11-18T08:38:48;5.60;99.90
57753;DHT22;43583;53.132;6.574;2023-11-18T08:41:14;5.60;99.90
57753;DHT22;43583;53.132;6.574;2023-11-18T08:43:40;5.60;99.90
57753;DHT22;43583;53.132;6.574;2023-11-18T08:46:06;5.60;99.90
57753;DHT22;43583;53.132;6.574;2023-11-18T08:48:33;5.60;99.90
57753;DHT22;43583;53.132;6.574;2023-11-18T08:50:59;5.60;99.90
57753;DHT22;43583;53.132;6.574;2023-11-18T08:53:27;5.60;99.90
57753;DHT22;43583;53.132;6.574;2023-11-18T08:55:53;5.70;99.90
57753;DHT22;43583;53.132;6.574;2023-11-18T08:58:21;5.70;99.90
57753;DHT22;43583;53.132;6.574;2023-11-18T09:00:48;5.70;99.90
57753;DHT22;43583;53.132;6.574;2023-11-18T09:03:17;5.70;99.90
57753;DHT22;43583;53.132;6.574;2023-11-18T09:05:46;5.70;99.90
57753;DHT22;43583;53.132;6.574;2023-11-18T09:08:31;5.70;99.90
57753;DHT22;43583;53.132;6.574;2023-11-18T09:11:12;5.70;99.90
57753;DHT22;43583;53.132;6.574;2023-11-18T09:13:43;5.70;99.90
57753;DHT22;43583;53.132;6.574;2023-11-18T09:16:11;5.80;99.90
57753;DHT22;43583;53.132;6.574;2023-11-18T09:18:42;5.70;99.90
57753;DHT22;43583;53.132;6.574;2023-11-18T09:21:11;5.80;99.90
57753;DHT22;43583;53.132;6.574;2023-11-18T09:23:48;5.80;99.90
57753;DHT22;43583;53.132;6.574;2023-11-18T09:26:15;5.80;99.90
57753;DHT22;43583;53.132;6.574;2023-11-18T09:28:42;5.80;99.90
57753;DHT22;43583;53.132;6.574;2023-11-18T09:31:09;5.90;99.90
57753;DHT22;43583;53.132;6.574;2023-11-18T09:33:40;5.90;99.90
57753;DHT22;43583;53.132;6.574;2023-11-18T09:36:10;6.00;99.90
57753;DHT22;43583;53.132;6.574;2023-11-18T09:38:39;6.00;99.90
57753;DHT22;43583;53.132;6.574;2023-11-18T09:41:10;6.00;99.90
57753;DHT22;43583;53.132;6.574;2023-11-18T09:43:39;6.00;99.90
57753;DHT22;43583;53.132;6.574;2023-11-18T09:46:13;6.00;99.90
57753;DHT22;43583;53.132;6.574;2023-11-18T09:48:44;6.00;99.90
57753;DHT22;43583;53.132;6.574;2023-11-18T09:51:24;6.10;99.90
57753;DHT22;43583;53.132;6.574;2023-11-18T09:53:52;6.00;99.90
57753;DHT22;43583;53.132;6.574;2023-11-18T09:56:59;6.00;99.90
57753;DHT22;43583;53.132;6.574;2023-11-18T09:59:49;6.00;99.90
57753;DHT22;43583;53.132;6.574;2023-11-18T10:02:22;6.10;99.90
57753;DHT22;43583;53.132;6.574;2023-11-18T10:04:49;6.00;99.90
57753;DHT22;43583;53.132;6.574;2023-11-18T10:07:24;6.00;99.90
57753;DHT22;43583;53.132;6.574;2023-11-18T10:09:54;6.10;99.90
57753;DHT22;43583;53.132;6.574;2023-11-18T10:12:23;6.00;99.90
57753;DHT22;43583;53.132;6.574;2023-11-18T10:14:49;6.00;99.90
57753;DHT22;43583;53.132;6.574;2023-11-18T10:17:18;6.00;99.90
57753;DHT22;43583;53.132;6.574;2023-11-18T10:19:57;6.00;99.90
57753;DHT22;43583;53.132;6.574;2023-11-18T10:22:27;6.00;99.90
57753;DHT22;43583;53.132;6.574;2023-11-18T10:24:54;6.00;99.90
57753;DHT22;43583;53.132;6.574;2023-11-18T10:27:23;6.00;99.90
57753;DHT22;43583;53.132;6.574;2023-11-18T10:29:50;5.90;99.90
57753;DHT22;43583;53.132;6.574;2023-11-18T10:32:17;5.90;99.90
57753;DHT22;43583;53.132;6.574;2023-11-18T10:34:47;5.90;99.90
57753;DHT22;43583;53.132;6.574;2023-11-18T10:37:15;5.90;99.90
57753;DHT22;43583;53.132;6.574;2023-11-18T10:39:46;5.90;99.90
57753;DHT22;43583;53.132;6.574;2023-11-18T10:42:12;5.90;99.90
57753;DHT22;43583;53.132;6.574;2023-11-18T10:44:37;5.90;99.90
57753;DHT22;43583;53.132;6.574;2023-11-18T10:47:03;5.90;99.90
57753;DHT22;43583;53.132;6.574;2023-11-18T10:49:29;5.80;99.90
57753;DHT22;43583;53.132;6.574;2023-11-18T10:52:02;5.80;99.90
57753;DHT22;43583;53.132;6.574;2023-11-18T10:54:32;5.90;99.90
57753;DHT22;43583;53.132;6.574;2023-11-18T10:57:01;5.80;99.90
57753;DHT22;43583;53.132;6.574;2023-11-18T10:59:32;5.80;99.90
57753;DHT22;43583;53.132;6.574;2023-11-18T11:01:58;5.80;99.90
57753;DHT22;43583;53.132;6.574;2023-11-18T11:04:23;5.90;99.90
57753;DHT22;43583;53.132;6.574;2023-11-18T11:06:50;5.90;99.90
57753;DHT22;43583;53.132;6.574;2023-11-18T11:09:23;5.90;99.90
57753;DHT22;43583;53.132;6.574;2023-11-18T11:11:55;5.90;99.90
57753;DHT22;43583;53.132;6.574;2023-11-18T11:14:26;5.90;99.90
57753;DHT22;43583;53.132;6.574;2023-11-18T11:17:05;6.00;99.90
57753;DHT22;43583;53.132;6.574;2023-11-18T11:20:05;6.10;99.90
57753;DHT22;43583;53.132;6.574;2023-11-18T11:23:12;6.10;99.90
57753;DHT22;43583;53.132;6.574;2023-11-18T11:28:22;6.20;99.90
57753;DHT22;43583;53.132;6.574;2023-11-18T11:31:12;6.20;99.90
57753;DHT22;43583;53.132;6.574;2023-11-18T11:33:54;6.10;99.90
57753;DHT22;43583;53.132;6.574;2023-11-18T11:36:21;6.20;99.90
57753;DHT22;43583;53.132;6.574;2023-11-18T11:38:52;6.10;99.90
57753;DHT22;43583;53.132;6.574;2023-11-18T11:41:18;6.20;99.90
57753;DHT22;43583;53.132;6.574;2023-11-18T11:43:51;6.20;99.90
57753;DHT22;43583;53.132;6.574;2023-11-18T11:46:22;6.10;99.90
57753;DHT22;43583;53.132;6.574;2023-11-18T11:48:50;6.10;99.90
57753;DHT22;43583;53.132;6.574;2023-11-18T11:51:57;6.10;99.90
57753;DHT22;43583;53.132;6.574;2023-11-18T11:54:25;6.10;99.90
57753;DHT22;43583;53.132;6.574;2023-11-18T11:56:56;6.20;99.90
57753;DHT22;43583;53.132;6.574;2023-11-18T12:02:25;6.20;99.90
57753;DHT22;43583;53.132;6.574;2023-11-18T12:04:58;6.20;99.90
57753;DHT22;43583;53.132;6.574;2023-11-18T12:07:27;6.20;99.90
57753;DHT22;43583;53.132;6.574;2023-11-18T12:09:59;6.20;99.90
57753;DHT22;43583;53.132;6.574;2023-11-18T12:12:27;6.20;99.90
57753;DHT22;43583;53.132;6.574;2023-11-18T12:14:58;6.20;99.90
57753;DHT22;43583;53.132;6.574;2023-11-18T12:20:41;6.20;99.90
57753;DHT22;43583;53.132;6.574;2023-11-18T12:23:08;6.20;99.90
57753;DHT22;43583;53.132;6.574;2023-11-18T12:25:40;6.20;99.90
57753;DHT22;43583;53.132;6.574;2023-11-18T12:28:10;6.20;99.90
57753;DHT22;43583;53.132;6.574;2023-11-18T12:30:41;6.20;99.90
57753;DHT22;43583;53.132;6.574;2023-11-18T12:33:18;6.30;99.90
57753;DHT22;43583;53.132;6.574;2023-11-18T12:47:00;6.40;99.90
57753;DHT22;43583;53.132;6.574;2023-11-18T12:49:47;6.40;99.90
57753;DHT22;43583;53.132;6.574;2023-11-18T12:52:20;6.40;99.90
57753;DHT22;43583;53.132;6.574;2023-11-18T12:54:47;6.50;99.90
57753;DHT22;43583;53.132;6.574;2023-11-18T12:57:17;6.40;99.90
57753;DHT22;43583;53.132;6.574;2023-11-18T12:59:45;6.40;99.90
57753;DHT22;43583;53.132;6.574;2023-11-18T13:02:11;6.40;99.90
57753;DHT22;43583;53.132;6.574;2023-11-18T13:04:46;6.40;99.90
57753;DHT22;43583;53.132;6.574;2023-11-18T13:07:19;6.40;99.90
57753;DHT22;43583;53.132;6.574;2023-11-18T13:09:47;6.40;99.90
57753;DHT22;43583;53.132;6.574;2023-11-18T13:12:13;6.40;99.90
57753;DHT22;43583;53.132;6.574;2023-11-18T13:14:44;6.40;99.90
57753;DHT22;43583;53.132;6.574;2023-11-18T13:17:17;6.40;99.90
57753;DHT22;43583;53.132;6.574;2023-11-18T13:19:44;6.40;99.90
57753;DHT22;43583;53.132;6.574;2023-11-18T13:22:11;6.40;99.90
57753;DHT22;43583;53.132;6.574;2023-11-18T13:24:39;6.40;99.90
57753;DHT22;43583;53.132;6.574;2023-11-18T13:27:06;6.40;99.90
57753;DHT22;43583;53.132;6.574;2023-11-18T13:29:33;6.40;99.90
57753;DHT22;43583;53.132;6.574;2023-11-18T13:32:00;6.40;99.90
57753;DHT22;43583;53.132;6.574;2023-11-18T13:34:35;6.40;99.90
57753;DHT22;43583;53.132;6.574;2023-11-18T13:37:07;6.50;99.90
57753;DHT22;43583;53.132;6.574;2023-11-18T13:39:35;6.50;99.90
57753;DHT22;43583;53.132;6.574;2023-11-18T13:42:23;6.50;99.90
57753;DHT22;43583;53.132;6.574;2023-11-18T13:44:50;6.50;99.90
57753;DHT22;43583;53.132;6.574;2023-11-18T13:47:22;6.60;99.90
57753;DHT22;43583;53.132;6.574;2023-11-18T13:49:50;6.60;99.90
57753;DHT22;43583;53.132;6.574;2023-11-18T13:52:17;6.60;99.90
57753;DHT22;43583;53.132;6.574;2023-11-18T13:54:44;6.60;99.90
57753;DHT22;43583;53.132;6.574;2023-11-18T13:57:11;6.70;99.90
57753;DHT22;43583;53.132;6.574;2023-11-18T13:59:37;6.60;99.90
57753;DHT22;43583;53.132;6.574;2023-11-18T14:02:04;6.70;99.90
57753;DHT22;43583;53.132;6.574;2023-11-18T14:04:30;6.70;99.90
57753;DHT22;43583;53.132;6.574;2023-11-18T14:07:03;6.70;99.90
57753;DHT22;43583;53.132;6.574;2023-11-18T14:09:31;6.70;99.90
57753;DHT22;43583;53.132;6.574;2023-11-18T14:12:01;6.80;99.90
57753;DHT22;43583;53.132;6.574;2023-11-18T14:14:27;6.80;99.90
57753;DHT22;43583;53.132;6.574;2023-11-18T14:16:54;6.80;99.90
57753;DHT22;43583;53.132;6.574;2023-11-18T14:19:26;6.80;99.90
57753;DHT22;43583;53.132;6.574;2023-11-18T14:21:53;6.80;99.90
57753;DHT22;43583;53.132;6.574;2023-11-18T14:24:19;6.80;99.90
57753;DHT22;43583;53.132;6.574;2023-11-18T14:26:45;6.80;99.90
57753;DHT22;43583;53.132;6.574;2023-11-18T14:29:10;6.90;99.90
57753;DHT22;43583;53.132;6.574;2023-11-18T14:31:37;6.80;99.90
57753;DHT22;43583;53.132;6.574;2023-11-18T14:34:03;6.90;99.90
57753;DHT22;43583;53.132;6.574;2023-11-18T14:36:29;6.90;99.90
57753;DHT22;43583;53.132;6.574;2023-11-18T14:38:55;6.80;99.90
57753;DHT22;43583;53.132;6.574;2023-11-18T14:41:21;6.90;99.90
57753;DHT22;43583;53.132;6.574;2023-11-18T14:43:52;6.80;99.90
57753;DHT22;43583;53.132;6.574;2023-11-18T14:46:18;6.90;99.90
57753;DHT22;43583;53.132;6.574;2023-11-18T14:48:44;6.80;99.90
57753;DHT22;43583;53.132;6.574;2023-11-18T14:51:10;6.80;99.90
57753;DHT22;43583;53.132;6.574;2023-11-18T14:53:37;6.80;99.90
57753;DHT22;43583;53.132;6.574;2023-11-18T14:56:03;6.80;99.90
57753;DHT22;43583;53.132;6.574;2023-11-18T14:58:30;6.80;99.90
57753;DHT22;43583;53.132;6.574;2023-11-18T15:00:57;6.80;99.90
57753;DHT22;43583;53.132;6.574;2023-11-18T15:03:24;6.80;99.90
57753;DHT22;43583;53.132;6.574;2023-11-18T15:05:50;6.80;99.90
57753;DHT22;43583;53.132;6.574;2023-11-18T15:08:15;6.80;99.90
57753;DHT22;43583;53.132;6.574;2023-11-18T15:10:42;6.80;99.90
57753;DHT22;43583;53.132;6.574;2023-11-18T15:13:08;6.80;99.90
57753;DHT22;43583;53.132;6.574;2023-11-18T15:15:44;6.80;99.90
57753;DHT22;43583;53.132;6.574;2023-11-18T15:18:13;6.80;99.90
57753;DHT22;43583;53.132;6.574;2023-11-18T15:20:43;6.90;99.90
57753;DHT22;43583;53.132;6.574;2023-11-18T15:23:09;6.90;99.90
57753;DHT22;43583;53.132;6.574;2023-11-18T15:25:35;6.90;99.90
57753;DHT22;43583;53.132;6.574;2023-11-18T15:28:01;6.90;99.90
57753;DHT22;43583;53.132;6.574;2023-11-18T15:30:27;7.00;99.90
57753;DHT22;43583;53.132;6.574;2023-11-18T15:32:53;7.00;99.90
57753;DHT22;43583;53.132;6.574;2023-11-18T15:35:19;6.90;99.90
57753;DHT22;43583;53.132;6.574;2023-11-18T15:37:46;7.00;99.90
57753;DHT22;43583;53.132;6.574;2023-11-18T15:40:16;7.00;99.90
57753;DHT22;43583;53.132;6.574;2023-11-18T15:42:47;7.00;99.90
57753;DHT22;43583;53.132;6.574;2023-11-18T15:45:18;7.00;99.90
57753;DHT22;43583;53.132;6.574;2023-11-18T15:47:44;7.10;99.90
57753;DHT22;43583;53.132;6.574;2023-11-18T15:50:11;7.00;99.90
57753;DHT22;43583;53.132;6.574;2023-11-18T15:52:41;7.10;99.90
57753;DHT22;43583;53.132;6.574;2023-11-18T15:55:07;7.10;99.90
57753;DHT22;43583;53.132;6.574;2023-11-18T15:57:43;7.10;99.90
57753;DHT22;43583;53.132;6.574;2023-11-18T16:00:10;7.10;99.90
57753;DHT22;43583;53.132;6.574;2023-11-18T16:02:47;7.10;99.90
57753;DHT22;43583;53.132;6.574;2023-11-18T16:05:18;7.10;99.90
57753;DHT22;43583;53.132;6.574;2023-11-18T16:07:51;7.10;99.90
57753;DHT22;43583;53.132;6.574;2023-11-18T16:10:18;7.10;99.90
57753;DHT22;43583;53.132;6.574;2023-11-18T16:12:45;7.10;99.90
57753;DHT22;43583;53.132;6.574;2023-11-18T16:15:14;7.10;99.90
57753;DHT22;43583;53.132;6.574;2023-11-18T16:17:41;7.10;99.90